createdAt,value
2018-03-07T00:00:40.803Z,87.25
2018-03-07T00:01:50.859Z,87.35
2018-03-07T00:03:00.904Z,87.92
2018-03-07T00:04:10.968Z,87.35
2018-03-07T00:05:21.012Z,87.25
2018-03-07T00:06:30.339Z,87.54
2018-03-07T00:07:40.395Z,87.54
2018-03-07T00:08:50.452Z,87.35
2018-03-07T00:10:00.252Z,87.45
2018-03-07T00:11:10.078Z,87.63
2018-03-07T00:12:20.194Z,87.35
2018-03-07T00:13:30.256Z,87.35
2018-03-07T00:14:40.057Z,87.54
2018-03-07T00:15:50.175Z,87.63
2018-03-07T00:17:00.246Z,87.63
2018-03-07T00:18:10.310Z,87.73
2018-03-07T00:19:20.400Z,87.63
2018-03-07T00:20:30.524Z,87.63
2018-03-07T00:21:40.592Z,87.54
2018-03-07T00:22:50.654Z,87.35
2018-03-07T00:24:00.461Z,87.92
2018-03-07T00:25:10.532Z,87.16
2018-03-07T00:26:20.608Z,87.54
2018-03-07T00:27:30.668Z,87.35
2018-03-07T00:28:40.738Z,87.92
2018-03-07T00:29:50.544Z,87.92
2018-03-07T00:31:00.088Z,87.54
2018-03-07T00:32:10.154Z,87.63
2018-03-07T00:33:20.224Z,87.82
2018-03-07T00:34:30.292Z,87.63
2018-03-07T00:35:40.356Z,87.73
2018-03-07T00:36:50.404Z,87.73
2018-03-07T00:38:00.453Z,87.35
2018-03-07T00:39:10.251Z,87.63
2018-03-07T00:40:20.332Z,87.35
2018-03-07T00:41:30.496Z,87.54
2018-03-07T00:42:40.296Z,87.82
2018-03-07T00:43:50.094Z,87.92
2018-03-07T00:44:59.882Z,87.92
2018-03-07T00:46:09.686Z,87.73
2018-03-07T00:47:19.502Z,87.82
2018-03-07T00:48:29.044Z,88.01
2018-03-07T00:49:38.328Z,87.82
2018-03-07T00:50:48.383Z,87.73
2018-03-07T00:51:58.463Z,87.92
2018-03-07T00:53:08.022Z,87.73
2018-03-07T00:54:17.810Z,87.82
2018-03-07T00:55:27.623Z,87.82
2018-03-07T00:56:37.432Z,88.1
2018-03-07T00:57:47.501Z,87.82
2018-03-07T00:58:57.051Z,87.82
2018-03-07T01:00:07.158Z,87.82
2018-03-07T01:01:17.220Z,87.92
2018-03-07T01:02:27.057Z,87.73
2018-03-07T01:03:37.109Z,87.82
2018-03-07T01:04:47.166Z,87.82
2018-03-07T01:05:57.263Z,87.92
2018-03-07T01:07:07.339Z,87.77
2018-03-07T01:08:17.386Z,87.77
2018-03-07T01:09:27.448Z,88.25
2018-03-07T01:10:37.505Z,88.25
2018-03-07T01:11:47.558Z,87.59
2018-03-07T01:12:57.626Z,87.77
2018-03-07T01:14:07.666Z,87.4
2018-03-07T01:15:17.714Z,87.59
2018-03-07T01:16:27.771Z,87.54
2018-03-07T01:17:37.832Z,87.4
2018-03-07T01:18:47.889Z,87.54
2018-03-07T01:19:57.945Z,87.59
2018-03-07T01:21:07.757Z,87.49
2018-03-07T01:22:17.852Z,87.4
2018-03-07T01:23:27.654Z,87.49
2018-03-07T01:24:37.730Z,87.49
2018-03-07T01:25:47.786Z,87.59
2018-03-07T01:26:57.834Z,87.3
2018-03-07T01:28:07.906Z,87.54
2018-03-07T01:29:17.960Z,87.35
2018-03-07T01:30:28.016Z,87.35
2018-03-07T01:31:37.800Z,87.16
2018-03-07T01:32:47.589Z,87.16
2018-03-07T01:33:57.133Z,87.16
2018-03-07T01:35:07.188Z,87.06
2018-03-07T01:36:17.265Z,86.78
2018-03-07T01:37:27.330Z,87.06
2018-03-07T01:38:37.392Z,87.54
2018-03-07T01:39:47.256Z,87.54
2018-03-07T01:40:57.046Z,87.45
2018-03-07T01:42:06.858Z,87.16
2018-03-07T01:43:16.914Z,87.59
2018-03-07T01:44:26.717Z,87.68
2018-03-07T01:45:36.764Z,87.68
2018-03-07T01:46:46.839Z,88.06
2018-03-07T01:47:56.900Z,87.97
2018-03-07T01:49:06.962Z,88.06
2018-03-07T01:50:17.012Z,88.06
2018-03-07T01:51:27.056Z,87.97
2018-03-07T01:52:37.108Z,88.06
2018-03-07T01:53:47.162Z,88.06
2018-03-07T01:54:57.212Z,88.44
2018-03-07T01:56:07.279Z,88.25
2018-03-07T01:57:17.070Z,87.68
2018-03-07T01:58:26.881Z,87.77
2018-03-07T01:59:36.675Z,87.59
2018-03-07T02:00:46.742Z,87.59
2018-03-07T02:01:56.796Z,87.59
2018-03-07T02:03:06.894Z,87.59
2018-03-07T02:04:16.418Z,87.59
2018-03-07T02:05:26.494Z,87.77
2018-03-07T02:06:36.275Z,87.87
2018-03-07T02:07:46.084Z,87.4
2018-03-07T02:08:56.192Z,87.4
2018-03-07T02:10:06.004Z,87.02
2018-03-07T02:11:15.808Z,86.74
2018-03-07T02:12:25.878Z,87.02
2018-03-07T02:13:35.403Z,87.12
2018-03-07T02:14:45.518Z,87.02
2018-03-07T02:15:55.562Z,87.21
2018-03-07T02:17:05.362Z,87.02
2018-03-07T02:18:15.150Z,87.16
2018-03-07T02:19:25.204Z,87.06
2018-03-07T02:20:34.835Z,86.97
2018-03-07T02:21:44.619Z,87.06
2018-03-07T02:22:54.440Z,87.06
2018-03-07T02:24:04.504Z,87.45
2018-03-07T02:25:14.548Z,87.25
2018-03-07T02:26:24.620Z,87.25
2018-03-07T02:27:34.395Z,87.16
2018-03-07T02:28:43.927Z,86.78
2018-03-07T02:29:53.736Z,87.16
2018-03-07T02:31:03.596Z,87.35
2018-03-07T02:32:13.388Z,87.25
2018-03-07T02:33:22.916Z,87.35
2018-03-07T02:34:33.025Z,87.63
2018-03-07T02:35:42.827Z,87.35
2018-03-07T02:36:52.950Z,87.63
2018-03-07T02:38:02.760Z,87.73
2018-03-07T02:39:12.838Z,87.63
2018-03-07T02:40:22.387Z,87.35
2018-03-07T02:41:32.462Z,87.35
2018-03-07T02:42:42.522Z,87.16
2018-03-07T02:43:52.063Z,86.97
2018-03-07T02:45:01.869Z,87.35
2018-03-07T02:46:11.943Z,87.16
2018-03-07T02:47:22.028Z,87.35
2018-03-07T02:48:31.844Z,87.45
2018-03-07T02:49:41.923Z,87.73
2018-03-07T02:50:51.975Z,87.54
2018-03-07T02:52:02.074Z,87.45
2018-03-07T02:53:12.126Z,87.73
2018-03-07T02:54:21.929Z,87.82
2018-03-07T02:55:31.735Z,87.54
2018-03-07T02:56:41.807Z,87.54
2018-03-07T02:57:51.894Z,87.54
2018-03-07T02:59:01.973Z,87.63
2018-03-07T03:00:12.139Z,87.73
2018-03-07T03:01:22.198Z,87.45
2018-03-07T03:02:32.272Z,87.63
2018-03-07T03:03:42.082Z,87.25
2018-03-07T03:04:52.200Z,87.54
2018-03-07T03:06:02.006Z,87.92
2018-03-07T03:07:12.083Z,87.73
2018-03-07T03:08:22.177Z,87.25
2018-03-07T03:39:54.253Z,83.67
2018-03-07T03:41:04.448Z,83.86
2018-03-07T03:42:14.508Z,85
2018-03-07T03:43:24.320Z,86.04
2018-03-07T03:44:34.366Z,86.89
2018-03-07T03:45:44.515Z,87.74
2018-03-07T03:46:54.581Z,88.31
2018-03-07T03:48:04.114Z,88.4
2018-03-07T03:49:13.974Z,88.73
2018-03-07T03:50:24.042Z,89.11
2018-03-07T03:51:34.133Z,89.3
2018-03-07T03:52:44.208Z,88.92
2018-03-07T03:53:54.262Z,88.92
2018-03-07T03:55:04.331Z,89.06
2018-03-07T03:56:14.404Z,89.25
2018-03-07T03:57:24.214Z,88.96
2018-03-07T03:58:34.276Z,89.06
2018-03-07T03:59:43.807Z,88.87
2018-03-07T04:00:53.612Z,89.06
2018-03-07T04:02:03.660Z,88.87
2018-03-07T04:03:13.515Z,88.96
2018-03-07T04:04:23.314Z,88.96
2018-03-07T04:05:33.454Z,89.01
2018-03-07T04:06:43.514Z,88.92
2018-03-07T04:07:53.562Z,88.63
2018-03-07T04:09:03.669Z,88.92
2018-03-07T04:10:13.720Z,88.63
2018-03-07T04:11:23.765Z,88.44
2018-03-07T04:12:33.804Z,88.54
2018-03-07T04:13:43.598Z,88.25
2018-03-07T04:14:53.663Z,88.63
2018-03-07T04:16:03.456Z,88.44
2018-03-07T04:17:13.250Z,88.44
2018-03-07T04:18:23.038Z,88.54
2018-03-07T04:19:32.581Z,88.73
2018-03-07T04:20:42.435Z,88.73
2018-03-07T04:21:52.489Z,88.25
2018-03-07T04:23:02.571Z,88.63
2018-03-07T04:24:12.626Z,88.44
2018-03-07T04:25:22.685Z,88.44
2018-03-07T04:26:32.887Z,88.35
2018-03-07T04:27:42.942Z,88.25
2018-03-07T04:28:52.994Z,88.44
2018-03-07T04:30:03.061Z,87.97
2018-03-07T04:31:12.863Z,88.06
2018-03-07T04:32:22.919Z,88.06
2018-03-07T04:33:32.977Z,88.35
2018-03-07T04:34:43.048Z,88.44
2018-03-07T04:35:53.101Z,88.44
2018-03-07T04:37:02.888Z,88.16
2018-03-07T04:38:12.675Z,88.44
2018-03-07T04:39:22.456Z,88.63
2018-03-07T04:40:32.529Z,88.25
2018-03-07T04:41:42.408Z,88.44
2018-03-07T04:42:52.249Z,88.44
2018-03-07T04:44:02.353Z,88.16
2018-03-07T04:45:12.132Z,88.35
2018-03-07T04:46:22.176Z,88.25
2018-03-07T04:47:31.984Z,88.16
2018-03-07T04:48:41.780Z,88.25
2018-03-07T04:49:51.881Z,88.06
2018-03-07T04:51:01.402Z,87.87
2018-03-07T04:52:11.196Z,87.97
2018-03-07T04:53:21.264Z,88.06
2018-03-07T04:54:30.802Z,87.77
2018-03-07T04:55:40.639Z,88.06
2018-03-07T04:56:50.430Z,88.06
2018-03-07T04:58:00.238Z,88.06
2018-03-07T04:59:09.768Z,88.25
2018-03-07T05:00:19.845Z,87.97
2018-03-07T05:01:30.037Z,87.59
2018-03-07T05:02:40.199Z,87.77
2018-03-07T05:03:50.599Z,88.06
2018-03-07T05:05:00.660Z,87.77
2018-03-07T05:06:10.453Z,87.68
2018-03-07T05:07:20.313Z,87.4
2018-03-07T05:08:30.114Z,87.3
2018-03-07T05:09:40.179Z,87.59
2018-03-07T05:10:49.998Z,87.68
2018-03-07T05:12:00.079Z,87.59
2018-03-07T05:13:09.598Z,87.49
2018-03-07T05:14:19.822Z,87.59
2018-03-07T05:15:29.885Z,87.21
2018-03-07T05:16:39.938Z,87.49
2018-03-07T05:17:49.740Z,87.49
2018-03-07T05:18:59.790Z,87.3
2018-03-07T05:20:09.852Z,87.4
2018-03-07T05:21:19.910Z,87.3
2018-03-07T05:22:29.975Z,87.3
2018-03-07T05:23:40.044Z,87.12
2018-03-07T05:24:49.882Z,87.3
2018-03-07T05:25:59.701Z,87.3
2018-03-07T05:27:09.789Z,87.49
2018-03-07T05:28:19.855Z,87.49
2018-03-07T05:29:29.905Z,87.21
2018-03-07T05:30:40.016Z,87.49
2018-03-07T05:31:50.065Z,87.49
2018-03-07T05:33:00.107Z,87.49
2018-03-07T05:34:09.908Z,87.59
2018-03-07T05:35:19.480Z,87.59
2018-03-07T05:36:29.544Z,87.59
2018-03-07T05:37:39.603Z,87.59
2018-03-07T05:38:49.675Z,87.68
2018-03-07T05:39:59.228Z,87.59
2018-03-07T05:41:09.293Z,87.59
2018-03-07T05:42:19.083Z,87.77
2018-03-07T05:43:29.131Z,87.68
2018-03-07T05:44:39.182Z,87.49
2018-03-07T05:45:49.301Z,87.87
2018-03-07T05:46:59.376Z,87.87
2018-03-07T05:48:08.924Z,87.35
2018-03-07T05:49:18.717Z,87.54
2018-03-07T05:50:28.782Z,87.49
2018-03-07T05:51:38.576Z,87.21
2018-03-07T05:52:48.647Z,87.16
2018-03-07T05:53:58.715Z,86.78
2018-03-07T05:55:08.790Z,87.25
2018-03-07T05:56:18.590Z,87.35
2018-03-07T05:57:28.440Z,87.16
2018-03-07T05:58:38.503Z,87.16
2018-03-07T05:59:48.571Z,86.97
2018-03-07T06:00:58.382Z,87.35
2018-03-07T06:02:08.198Z,86.78
2018-03-07T06:03:18.256Z,86.97
2018-03-07T06:04:28.320Z,86.78
2018-03-07T06:05:38.115Z,86.78
2018-03-07T06:06:48.187Z,86.68
2018-03-07T06:07:58.247Z,87.16
2018-03-07T06:09:08.366Z,87.16
2018-03-07T06:10:18.161Z,86.78
2018-03-07T06:11:28.205Z,86.78
2018-03-07T06:12:38.010Z,86.97
2018-03-07T06:13:48.080Z,86.97
2018-03-07T06:14:58.143Z,86.97
2018-03-07T06:16:08.212Z,86.91
2018-03-07T06:17:18.267Z,87.35
2018-03-07T06:18:28.330Z,87.01
2018-03-07T06:19:38.117Z,87.2
2018-03-07T06:20:47.967Z,86.44
2018-03-07T06:21:57.755Z,86.35
2018-03-07T06:23:07.807Z,86.16
2018-03-07T06:24:17.880Z,86.39
2018-03-07T06:25:27.958Z,85.63
2018-03-07T06:26:37.756Z,85.72
2018-03-07T06:27:47.595Z,86.58
2018-03-07T06:28:57.639Z,86.39
2018-03-07T06:30:07.446Z,86.3
2018-03-07T06:31:17.524Z,86.77
2018-03-07T06:32:27.396Z,86.49
2018-03-07T06:33:37.450Z,86.3
2018-03-07T06:34:47.499Z,86.3
2018-03-07T06:35:57.301Z,86.68
2018-03-07T06:37:07.123Z,86.77
2018-03-07T06:38:17.207Z,87.05
2018-03-07T06:39:27.011Z,86.68
2018-03-07T06:40:36.797Z,86.77
2018-03-07T06:41:46.859Z,87.24
2018-03-07T06:42:56.666Z,87.15
2018-03-07T06:44:06.719Z,87.43
2018-03-07T06:45:16.784Z,87.53
2018-03-07T06:46:26.642Z,87.43
2018-03-07T06:47:36.759Z,87.72
2018-03-07T06:48:46.835Z,87.72
2018-03-07T06:49:56.640Z,87.91
2018-03-07T06:51:06.715Z,88.01
2018-03-07T06:52:16.249Z,88.01
2018-03-07T06:53:26.299Z,87.82
2018-03-07T06:54:36.098Z,87.82
2018-03-07T06:55:45.627Z,87.82
2018-03-07T06:56:55.682Z,87.82
2018-03-07T06:58:05.721Z,87.91
2018-03-07T06:59:15.797Z,88.1
2018-03-07T07:00:25.607Z,87.82
2018-03-07T07:01:35.670Z,87.91
2018-03-07T07:02:45.727Z,87.82
2018-03-07T07:03:55.785Z,87.91
2018-03-07T07:05:05.604Z,87.82
2018-03-07T07:06:15.542Z,88.1
2018-03-07T07:07:25.666Z,87.72
2018-03-07T07:08:35.460Z,87.72
2018-03-07T07:09:45.521Z,87.72
2018-03-07T07:10:55.583Z,87.82
2018-03-07T07:12:05.384Z,87.43
2018-03-07T07:13:15.453Z,87.43
2018-03-07T07:14:24.987Z,87.82
2018-03-07T07:15:35.054Z,87.82
2018-03-07T07:16:45.122Z,87.91
2018-03-07T07:17:55.034Z,87.82
2018-03-07T07:19:05.112Z,87.82
2018-03-07T07:20:14.937Z,87.57
2018-03-07T07:21:24.549Z,87.43
2018-03-07T07:22:34.342Z,87.76
2018-03-07T07:23:43.878Z,87.76
2018-03-07T07:24:53.944Z,87.29
2018-03-07T07:26:03.782Z,87.19
2018-03-07T07:27:13.839Z,87.29
2018-03-07T07:28:23.651Z,87.19
2018-03-07T07:29:33.728Z,87.19
2018-03-07T07:30:43.783Z,87.38
2018-03-07T07:31:53.571Z,87.38
2018-03-07T07:33:03.622Z,87.19
2018-03-07T07:34:13.420Z,87.29
2018-03-07T07:35:23.274Z,87.86
2018-03-07T07:36:33.073Z,87.67
2018-03-07T07:37:43.173Z,87.76
2018-03-07T07:38:52.990Z,87.38
2018-03-07T07:40:02.778Z,87.95
2018-03-07T07:41:12.840Z,87.95
2018-03-07T07:42:22.648Z,88.05
2018-03-07T07:43:32.728Z,87.95
2018-03-07T07:44:42.797Z,87.76
2018-03-07T07:45:52.852Z,87.86
2018-03-07T07:47:02.939Z,87.86
2018-03-07T07:48:13.016Z,87.95
2018-03-07T07:49:22.814Z,87.95
2018-03-07T07:50:32.908Z,87.95
2018-03-07T07:51:42.970Z,88.05
2018-03-07T07:52:53.038Z,88.24
2018-03-07T07:54:02.880Z,88.05
2018-03-07T07:55:12.676Z,88.24
2018-03-07T07:56:22.748Z,87.81
2018-03-07T07:57:32.809Z,87.76
2018-03-07T07:58:42.689Z,87.86
2018-03-07T07:59:52.765Z,88.09
2018-03-07T08:01:02.876Z,87.62
2018-03-07T08:02:12.671Z,87.43
2018-03-07T08:03:22.797Z,87.24
2018-03-07T08:04:32.876Z,87.14
2018-03-07T08:05:42.921Z,87.34
2018-03-07T08:06:52.730Z,87.24
2018-03-07T08:08:02.770Z,87.19
2018-03-07T08:09:12.571Z,86.76
2018-03-07T08:10:22.378Z,86.8
2018-03-07T08:11:32.173Z,86.43
2018-03-07T08:12:42.014Z,86.99
2018-03-07T08:13:52.082Z,86.52
2018-03-07T08:15:01.660Z,86.18
2018-03-07T08:16:11.722Z,86.28
2018-03-07T08:17:21.799Z,85.99
2018-03-07T08:18:31.871Z,85.9
2018-03-07T08:19:41.919Z,86.32
2018-03-07T08:20:51.969Z,86.09
2018-03-07T08:22:02.037Z,86.04
2018-03-07T08:23:12.123Z,86.04
2018-03-07T08:24:22.194Z,86.22
2018-03-07T08:25:32.286Z,86.32
2018-03-07T08:26:42.088Z,86.42
2018-03-07T08:27:52.145Z,86.42
2018-03-07T08:29:02.206Z,86.51
2018-03-07T08:30:12.078Z,86.13
2018-03-07T08:31:22.141Z,85.94
2018-03-07T08:32:31.924Z,86.36
2018-03-07T08:33:41.734Z,86.36
2018-03-07T08:34:51.794Z,85.51
2018-03-07T08:36:01.649Z,86.32
2018-03-07T08:37:11.724Z,86.22
2018-03-07T08:38:21.785Z,86.12
2018-03-07T08:39:31.857Z,86.32
2018-03-07T08:40:41.666Z,86.12
2018-03-07T08:41:51.778Z,86.41
2018-03-07T08:43:01.564Z,86.12
2018-03-07T08:44:11.613Z,86.22
2018-03-07T08:45:21.686Z,86.41
2018-03-07T08:46:31.771Z,86.26
2018-03-07T08:47:41.351Z,86.07
2018-03-07T08:48:51.414Z,86.16
2018-03-07T08:50:01.475Z,86.26
2018-03-07T08:51:11.617Z,86.36
2018-03-07T08:52:21.693Z,86.45
2018-03-07T08:53:31.744Z,86.16
2018-03-07T08:54:41.790Z,86.36
2018-03-07T08:55:51.754Z,86.02
2018-03-07T08:57:01.816Z,86.21
2018-03-07T08:58:11.872Z,86.02
2018-03-07T08:59:21.937Z,85.93
2018-03-07T09:00:31.999Z,85.73
2018-03-07T09:01:42.209Z,86.02
2018-03-07T09:02:51.997Z,86.02
2018-03-07T09:04:02.060Z,86.11
2018-03-07T09:05:12.142Z,86.11
2018-03-07T09:06:21.690Z,86.11
2018-03-07T09:07:31.491Z,85.93
2018-03-07T09:08:41.549Z,86.49
2018-03-07T09:09:51.614Z,86.4
2018-03-07T09:11:01.686Z,86.11
2018-03-07T09:12:11.757Z,86.16
2018-03-07T09:13:21.568Z,86.4
2018-03-07T09:14:31.639Z,86.3
2018-03-07T09:15:41.700Z,86.25
2018-03-07T09:16:51.512Z,86.44
2018-03-07T09:18:01.315Z,86.63
2018-03-07T09:19:11.375Z,86.44
2018-03-07T09:20:21.441Z,86.54
2018-03-07T09:21:31.553Z,86.63
2018-03-07T09:22:41.626Z,86.16
2018-03-07T09:23:51.690Z,86.35
2018-03-07T09:25:01.753Z,86.35
2018-03-07T09:26:11.830Z,86.35
2018-03-07T09:27:21.896Z,86.06
2018-03-07T09:28:31.708Z,86.54
2018-03-07T09:29:41.781Z,87.02
2018-03-07T09:30:51.853Z,86.73
2018-03-07T09:32:01.926Z,87.21
2018-03-07T09:33:11.994Z,87.07
2018-03-07T09:34:22.066Z,87.54
2018-03-07T09:35:32.131Z,87.64
2018-03-07T09:36:42.238Z,88.12
2018-03-07T09:37:52.024Z,88.02
2018-03-07T09:39:02.085Z,88.02
2018-03-07T09:40:12.161Z,87.98
2018-03-07T09:41:21.961Z,87.69
2018-03-07T09:42:31.764Z,87.69
2018-03-07T09:43:41.833Z,88.26
2018-03-07T09:44:51.629Z,88.07
2018-03-07T09:46:01.726Z,87.54
2018-03-07T09:47:11.532Z,87.45
2018-03-07T09:48:21.812Z,86.59
2018-03-07T09:49:32.109Z,86.82
2018-03-07T09:50:42.166Z,86.35
2018-03-07T09:51:52.248Z,85.91
2018-03-07T09:53:02.054Z,85.15
2018-03-07T09:54:12.121Z,85.19
2018-03-07T09:55:21.660Z,85.1
2018-03-07T09:56:31.979Z,84.62
2018-03-07T09:57:41.411Z,84.28
2018-03-07T09:58:51.211Z,83.94
2018-03-07T10:00:01.284Z,84.61
2018-03-07T10:01:11.091Z,84.8
2018-03-07T10:02:20.897Z,84.61
2018-03-07T10:03:30.449Z,85.28
2018-03-07T10:04:40.254Z,84.89
2018-03-07T10:05:50.062Z,85.18
2018-03-07T10:07:00.134Z,84.84
2018-03-07T10:08:10.452Z,84.75
2018-03-07T10:09:20.523Z,84.94
2018-03-07T10:10:30.606Z,83.93
2018-03-07T10:11:40.676Z,84.69
2018-03-07T10:12:50.753Z,84.69
2018-03-07T10:14:00.822Z,83.97
2018-03-07T10:15:10.709Z,83.78
2018-03-07T10:16:20.514Z,83.97
2018-03-07T10:17:30.122Z,84.45
2018-03-07T10:18:40.179Z,83.97
2018-03-07T10:19:50.055Z,84.83
2018-03-07T10:21:00.152Z,84.74
2018-03-07T10:22:10.294Z,84.35
2018-03-07T10:23:19.849Z,83.53
2018-03-07T10:24:29.909Z,83.19
2018-03-07T10:25:39.521Z,83.04
2018-03-07T10:26:49.585Z,82.98
2018-03-07T10:27:59.157Z,82.51
2018-03-07T10:29:08.974Z,82.16
2018-03-07T10:30:18.520Z,82.87
2018-03-07T10:31:28.120Z,82.74
2018-03-07T10:32:38.218Z,83.03
2018-03-07T10:33:48.024Z,82.93
2018-03-07T10:34:57.818Z,82.97
2018-03-07T10:36:07.613Z,82.73
2018-03-07T10:37:17.699Z,82.38
2018-03-07T10:38:27.768Z,82.52
2018-03-07T10:39:37.860Z,82.52
2018-03-07T10:40:47.995Z,83.19
2018-03-07T10:41:58.068Z,83.92
2018-03-07T10:43:08.204Z,84.69
2018-03-07T10:44:18.012Z,85.8
2018-03-07T10:45:28.077Z,86.43
2018-03-07T10:46:38.257Z,87.05
2018-03-07T10:47:48.410Z,86.58
2018-03-07T10:48:58.227Z,85.66
2018-03-07T10:50:08.314Z,84.84
2018-03-07T10:51:18.208Z,84.3
2018-03-07T10:52:27.753Z,84.06
2018-03-07T10:53:37.560Z,82.94
2018-03-07T10:54:47.443Z,82.89
2018-03-07T10:55:56.733Z,83.08
2018-03-07T10:57:06.806Z,83.31
2018-03-07T10:58:16.358Z,84.43
2018-03-07T10:59:26.423Z,84.53
2018-03-07T11:00:36.535Z,84.43
2018-03-07T11:01:46.348Z,84.81
2018-03-07T11:02:56.154Z,85.3
2018-03-07T11:04:05.966Z,85.87
2018-03-07T11:05:16.018Z,85.93
2018-03-07T11:06:26.152Z,86.41
2018-03-07T11:07:36.220Z,86.6
2018-03-07T11:08:46.313Z,86.94
2018-03-07T11:09:56.388Z,87.33
2018-03-07T11:11:06.192Z,87.9
2018-03-07T11:12:16.052Z,87.67
2018-03-07T11:13:26.117Z,88.15
2018-03-07T11:14:35.971Z,88.24
2018-03-07T11:15:46.111Z,88.44
2018-03-07T11:16:56.187Z,88.15
2018-03-07T11:18:06.313Z,88.59
2018-03-07T11:19:16.387Z,88.49
2018-03-07T11:20:26.462Z,88.97
2018-03-07T11:21:36.538Z,88.78
2018-03-07T11:22:46.618Z,88.87
2018-03-07T11:23:56.681Z,89.4
2018-03-07T11:25:06.759Z,89.4
2018-03-07T11:26:16.834Z,88.73
2018-03-07T11:27:26.908Z,88.93
2018-03-07T11:28:37.173Z,88.73
2018-03-07T11:29:47.248Z,89.4
2018-03-07T11:30:57.072Z,89.22
2018-03-07T11:32:07.171Z,88.73
2018-03-07T11:33:17.244Z,88.73
2018-03-07T11:34:27.422Z,88.16
2018-03-07T11:35:37.505Z,88.39
2018-03-07T11:36:47.324Z,88.3
2018-03-07T11:37:56.857Z,87.53
2018-03-07T11:39:06.923Z,87.68
2018-03-07T11:40:17.031Z,88.06
2018-03-07T11:41:27.096Z,88.25
2018-03-07T11:42:36.639Z,88.54
2018-03-07T11:43:46.706Z,88.59
2018-03-07T11:44:56.511Z,88.4
2018-03-07T11:46:06.550Z,88.69
2018-03-07T11:47:16.378Z,88.69
2018-03-07T11:48:26.196Z,87.92
2018-03-07T11:49:36.286Z,88.11
2018-03-07T11:50:46.087Z,88.11
2018-03-07T11:51:56.175Z,88.02
2018-03-07T11:53:06.254Z,87.44
2018-03-07T11:54:16.334Z,87.44
2018-03-07T11:55:26.409Z,87.54
2018-03-07T11:56:36.511Z,88.02
2018-03-07T11:57:46.596Z,88.31
2018-03-07T11:58:56.154Z,87.73
2018-03-07T12:00:05.965Z,88.02
2018-03-07T12:01:16.056Z,87.92
2018-03-07T12:02:26.130Z,88.02
2018-03-07T12:03:35.668Z,87.35
2018-03-07T12:04:45.791Z,87.63
2018-03-07T12:05:55.379Z,87.25
2018-03-07T12:07:05.442Z,87.54
2018-03-07T12:08:15.649Z,87.15
2018-03-07T12:09:25.710Z,87.25
2018-03-07T12:10:35.856Z,86.77
2018-03-07T12:11:45.957Z,85.8
2018-03-07T12:12:56.042Z,85.94
2018-03-07T12:14:05.885Z,85.84
2018-03-07T12:15:15.718Z,86.76
2018-03-07T12:16:25.796Z,87.24
2018-03-07T12:17:35.947Z,87.39
2018-03-07T12:18:45.809Z,87.19
2018-03-07T12:19:55.894Z,87.63
2018-03-07T12:21:05.992Z,87.82
2018-03-07T12:22:16.071Z,88.11
2018-03-07T12:23:26.162Z,88.02
2018-03-07T12:24:36.239Z,88.11
2018-03-07T12:25:46.335Z,88.07
2018-03-07T12:26:56.156Z,88.17
2018-03-07T12:28:05.717Z,88.35
2018-03-07T12:29:15.534Z,88.51
2018-03-07T12:30:25.600Z,88.7
2018-03-07T12:31:35.659Z,88.89
2018-03-07T12:32:45.520Z,88.79
2018-03-07T12:33:55.172Z,88.7
2018-03-07T12:35:05.253Z,88.89
2018-03-07T12:36:15.337Z,88.65
2018-03-07T12:37:25.420Z,88.94
2018-03-07T12:38:35.465Z,88.51
2018-03-07T12:39:45.315Z,88.56
2018-03-07T12:40:55.163Z,88.08
2018-03-07T12:42:05.243Z,88.37
2018-03-07T12:43:15.330Z,87.74
2018-03-07T12:44:25.397Z,88.12
2018-03-07T12:45:35.263Z,87.84
2018-03-07T12:46:45.082Z,87.35
2018-03-07T12:47:54.626Z,87.55
2018-03-07T12:49:04.191Z,87.98
2018-03-07T12:50:13.998Z,87.4
2018-03-07T12:51:24.113Z,87.78
2018-03-07T12:52:33.940Z,87.4
2018-03-07T12:53:44.004Z,87.49
2018-03-07T12:54:53.805Z,87.68
2018-03-07T12:56:03.599Z,87.68
2018-03-07T12:57:13.465Z,87.88
2018-03-07T12:58:23.571Z,87.78
2018-03-07T12:59:33.678Z,87.88
2018-03-07T13:00:43.788Z,87.98
2018-03-07T13:01:53.881Z,88.35
2018-03-07T13:03:04.021Z,87.88
2018-03-07T13:04:14.112Z,87.21
2018-03-07T13:05:23.914Z,87.3
2018-03-07T13:06:34.012Z,87.49
2018-03-07T13:07:44.101Z,87.4
2018-03-07T13:08:54.230Z,87.25
2018-03-07T13:10:04.056Z,87.98
2018-03-07T13:11:13.891Z,87.4
2018-03-07T13:12:23.975Z,87.35
2018-03-07T13:13:34.078Z,87.54
2018-03-07T13:14:44.235Z,87.54
2018-03-07T13:15:54.326Z,87.63
2018-03-07T13:17:04.216Z,88.11
2018-03-07T13:18:14.295Z,88.55
2018-03-07T13:19:24.102Z,89.22
2018-03-07T13:20:34.166Z,89.32
2018-03-07T13:21:44.249Z,89.47
2018-03-07T13:22:54.078Z,89.27
2018-03-07T13:24:04.152Z,89.9
2018-03-07T13:25:13.723Z,89.32
2018-03-07T13:26:23.860Z,88.7
2018-03-07T13:27:33.930Z,88.98
2018-03-07T13:28:43.990Z,88.6
2018-03-07T13:29:54.179Z,88.79
2018-03-07T13:31:04.287Z,89.47
2018-03-07T13:32:14.098Z,89.13
2018-03-07T13:33:23.647Z,89.42
2018-03-07T13:34:33.469Z,89.42
2018-03-07T13:35:43.292Z,88.79
2018-03-07T13:36:53.113Z,87.93
2018-03-07T13:38:03.194Z,88.17
2018-03-07T13:39:12.990Z,87.3
2018-03-07T13:40:23.069Z,87.4
2018-03-07T13:41:32.883Z,87.68
2018-03-07T13:42:42.766Z,87.59
2018-03-07T13:43:52.583Z,87.59
2018-03-07T13:45:02.678Z,87.98
2018-03-07T13:46:12.206Z,88.17
2018-03-07T13:47:22.271Z,88.02
2018-03-07T13:48:32.339Z,87.78
2018-03-07T13:49:42.260Z,88.31
2018-03-07T13:50:52.161Z,88.31
2018-03-07T13:52:02.234Z,88.02
2018-03-07T13:53:12.308Z,87.63
2018-03-07T13:54:22.399Z,88.02
2018-03-07T13:55:32.522Z,87.15
2018-03-07T13:56:42.328Z,87.58
2018-03-07T13:57:52.159Z,87.19
2018-03-07T13:59:01.706Z,87.19
2018-03-07T14:00:11.003Z,87.19
2018-03-07T14:01:20.893Z,87.05
2018-03-07T14:02:30.983Z,87.62
2018-03-07T14:03:40.795Z,86.95
2018-03-07T14:04:50.850Z,87.05
2018-03-07T14:06:00.939Z,87.19
2018-03-07T14:07:10.506Z,87.19
2018-03-07T14:08:20.575Z,86.9
2018-03-07T14:09:30.389Z,86.99
2018-03-07T14:10:40.212Z,87.67
2018-03-07T14:11:50.011Z,86.99
2018-03-07T14:12:59.564Z,87.38
2018-03-07T14:14:09.633Z,87.48
2018-03-07T14:15:19.711Z,87.57
2018-03-07T14:16:29.783Z,87.38
2018-03-07T14:17:39.872Z,87.48
2018-03-07T14:18:49.716Z,87.76
2018-03-07T14:19:59.789Z,88.53
2018-03-07T14:21:09.867Z,88.87
2018-03-07T14:22:19.941Z,89.69
2018-03-07T14:23:30.016Z,90.17
2018-03-07T14:24:39.823Z,90.22
2018-03-07T14:25:49.386Z,90.9
2018-03-07T14:26:59.448Z,90.95
2018-03-07T14:28:09.530Z,90.75
2018-03-07T14:29:19.363Z,90.66
2018-03-07T14:30:29.186Z,90.47
2018-03-07T14:31:39.000Z,90.33
2018-03-07T14:32:48.569Z,89.75
2018-03-07T14:33:58.383Z,89.7
2018-03-07T14:35:08.227Z,89.12
2018-03-07T14:36:17.768Z,88.93
2018-03-07T14:37:26.778Z,88.98
2018-03-07T14:38:36.581Z,88.31
2018-03-07T14:39:46.150Z,88.65
2018-03-07T14:40:55.744Z,88.65
2018-03-07T14:42:05.580Z,88.74
2018-03-07T14:43:15.410Z,88.65
2018-03-07T14:44:25.213Z,89.32
2018-03-07T14:45:35.293Z,88.93
2018-03-07T14:46:45.378Z,88.65
2018-03-07T14:47:55.479Z,88.84
2018-03-07T14:49:05.619Z,88.84
2018-03-07T14:50:15.714Z,88.17
2018-03-07T14:51:25.268Z,88.65
2018-03-07T14:52:35.344Z,88.74
2018-03-07T14:53:45.327Z,89.7
2018-03-07T14:54:55.126Z,89.47
2018-03-07T14:56:05.023Z,89.75
2018-03-07T14:57:15.115Z,89.27
2018-03-07T14:58:24.908Z,89.85
2018-03-07T14:59:34.719Z,90
2018-03-07T15:00:44.280Z,90.19
2018-03-07T15:01:53.831Z,90.19
2018-03-07T15:03:03.632Z,90.09
2018-03-07T15:04:13.768Z,90.09
2018-03-07T15:05:23.833Z,90.19
2018-03-07T15:06:33.640Z,90.23
2018-03-07T15:07:43.717Z,90.05
2018-03-07T15:08:53.800Z,90.05
2018-03-07T15:10:03.629Z,90.43
2018-03-07T15:11:13.925Z,90.43
2018-03-07T15:12:24.017Z,90.62
2018-03-07T15:13:34.112Z,90.43
2018-03-07T15:14:44.185Z,90
2018-03-07T15:15:54.329Z,90.19
2018-03-07T15:17:04.435Z,89.76
2018-03-07T15:18:14.545Z,89.66
2018-03-07T15:19:24.638Z,89.37
2018-03-07T15:20:34.719Z,89.18
2018-03-07T15:21:44.848Z,88.7
2018-03-07T15:22:54.917Z,88.8
2018-03-07T15:24:05.009Z,88.51
2018-03-07T15:25:15.088Z,88.51
2018-03-07T15:26:25.182Z,88.61
2018-03-07T15:27:35.333Z,88.23
2018-03-07T15:28:45.474Z,88.84
2018-03-07T15:29:55.558Z,88.7
2018-03-07T15:31:05.386Z,89.18
2018-03-07T15:32:15.541Z,88.99
2018-03-07T15:33:25.363Z,89.57